Point Pleasant, NJ (08742)

6:46 AM EST on March 04, 2015 (GMT -0500)
Jersey Shore Wx Center | Change Station
CLOSE
Current Station
Personal Weather Station
Location: Point Pleasant Beach, NJ
Elevation: 13 ft
Nearby Weather Stations
Active Advisory: Winter Storm Warning

Elev 13 ft 40.09 °N, 74.05 °W | Updated 3 seconds ago

Rain
Rain
37.9 °F
Feels Like 38 °F
N
3.0
Wind Variable Wind from NW
Gusts 6.0 mph

Today
High -- | Low -- °F
--% Chance of Precip.
Yesterday
High -- | Low -- °F
Precip. -- in
6:25 AM 5:51 PM
Waxing Gibbous, 99% visible
Pressure 29.82 in
Visibility 5.0 miles
Clouds Mostly Cloudy 800 ft
Mostly Cloudy 1700 ft
Overcast 5500 ft
Windchill 38 °F
Dew Point 36 °F
Humidity 94%
Rainfall 0.02 in
Snow Depth Not available.
UV 0.0 out of 12
Pollen .50 out of 12
Air Quality Not available.
Flu Activity Not available.
METAR KBLM 041135Z AUTO 28009G14KT 5SM BKN008 BKN017 OVC055 03/00 A2982 RMK AO1

More Conditions Fewer Conditions

Pressure 29.82 in
Visibility 5.0 miles
Clouds Mostly Cloudy 800 ft
Mostly Cloudy 1700 ft
Overcast 5500 ft
Windchill 38 °F
Dew Point 36 °F
Humidity 94%
Rainfall 0.02 in
Snow Depth Not available.
UV 0.0 out of 12
Pollen .50 out of 12
Air Quality Not available.
Flu Activity Not available.
METAR KBLM 041135Z AUTO 28009G14KT 5SM BKN008 BKN017 OVC055 03/00 A2982 RMK AO1

More Conditions Fewer Conditions

10-Day Weather Forecast

Almanac

Astronomy

Mar. 04, 2015 Rise Set
Actual Time
Civil Twilight
Nautical Twilight
Astronomical Twilight
Moon
Length of Visible Light
Length of Day
Tomorrow will be .
, % of the Moon is Illuminated

Today's Extremes

State Highs State Lows

Community

WunderPhotos

Upload Photos

1,802,435 photos uploaded!

WunderBlogs® & News

Nearby

Air Quality

  Air Quality AQ Index Pollutant
Not available.

Snow Depth

Station Depth Elevation

Earthquake Activity

City Distance Mag. Time & Date
Minimum magnitude displayed is 2.5.

Coastal Water Temperatures

Place Temperature

Nearby Weather Stations

Winter Storm Warning
Statement as of 5:48 AM EST on March 04, 2015

... Winter Storm Warning remains in effect from 11 PM this evening
to 7 PM EST Thursday...

* hazard types... a steady accumulating snow, possibly heavy at
times, from late tonight into Thursday.

* Snow accumulations... the potential for 5 to 9 inches.

* Timing... rain will change to snow overnight and the snow will
continue into Thursday.

* Impacts... widespread and substantial impacts on travel are
expected for late tonight and Thursday.

Precautionary/preparedness actions...

This Winter Storm Warning means that significant amounts of
snow are expected. The snow will make travel very hazardous or
impossible.